Wisby Argan — LAFB7 — position and weather

sailwx.info

Track history (hours):
 
Tides and Currents Weather Stations Pressure Air Temp Water Temp Dewpoint Dewpoint Depression Visibility Wind Speed Wind Dir Waves Ship Positions

Wisby Argan

Last reported at 2017-Nov-20 00:30 UTC. Time now 2017-Nov-20 12:10 UTC.
Position N 27°60' W 013°12'.

Length 100 m; draft 4.5 m.

Type: Ship. MMSI: 259746000.

Date/timePositionNaut miles runAvg speedWind from/ knotsBaromVisibWave heightAir tempDewpointWater temp
2017-Nov-20 00:30N 27°60' W 013°12'5 9.8
2017-Nov-20 00:00N 27°55' W 013°15'15 9.7
2017-Nov-19 22:29N 27°43' W 013°24'5 9.8
2017-Nov-19 22:00N 27°39' W 013°27'1510.0
2017-Nov-19 20:33N 27°24' W 013°29'110.2
2017-Nov-19 20:26N 27°23' W 013°29'  
2017-Nov-14 23:30N 27°50' W 013°47'  
2017-Nov-12 07:32N 36°02' W 005°24'1 9.8
2017-Nov-12 07:24N 36°03' W 005°24'3 7.5
2017-Nov-12 07:00N 36°06' W 005°25'0 0.3
2017-Nov-12 06:22N 36°06' W 005°25'0 0.0
2017-Nov-12 05:29N 36°06' W 005°25'2 3.1
2017-Nov-12 04:58N 36°07' W 005°24'2 0.1
2017-Nov-11 07:20N 36°05' W 005°22'3 8.3
2017-Nov-11 07:00N 36°04' W 005°19'0 0.8
2017-Nov-11 06:30N 36°04' W 005°19'1 1.1
2017-Nov-11 06:00N 36°04' W 005°19'5 9.9
2017-Nov-11 05:30N 36°03' W 005°13'  
Track history (hours):
 
Tides and Currents Weather Stations Pressure Air Temp Water Temp Dewpoint Dewpoint Depression Visibility Wind Speed Wind Dir Waves Ship Positions

Wisby Argan

Last reported at 2017-Nov-20 00:30 UTC. Time now 2017-Nov-20 12:10 UTC.
Position N 27°60' W 013°12'.

Length 100 m; draft 4.5 m.

Type: Ship. MMSI: 259746000.

Date/timePositionNaut miles runAvg speedWind from/ knotsBaromVisibWave heightAir tempDewpointWater temp
2017-Nov-20 00:30N 27°60' W 013°12'5 9.8
2017-Nov-20 00:00N 27°55' W 013°15'15 9.7
2017-Nov-19 22:29N 27°43' W 013°24'5 9.8
2017-Nov-19 22:00N 27°39' W 013°27'1510.0
2017-Nov-19 20:33N 27°24' W 013°29'110.2
2017-Nov-19 20:26N 27°23' W 013°29'  
2017-Nov-14 23:30N 27°50' W 013°47'  
2017-Nov-12 07:32N 36°02' W 005°24'1 9.8
2017-Nov-12 07:24N 36°03' W 005°24'3 7.5
2017-Nov-12 07:00N 36°06' W 005°25'0 0.3
2017-Nov-12 06:22N 36°06' W 005°25'0 0.0
2017-Nov-12 05:29N 36°06' W 005°25'2 3.1
2017-Nov-12 04:58N 36°07' W 005°24'2 0.1
2017-Nov-11 07:20N 36°05' W 005°22'3 8.3
2017-Nov-11 07:00N 36°04' W 005°19'0 0.8
2017-Nov-11 06:30N 36°04' W 005°19'1 1.1
2017-Nov-11 06:00N 36°04' W 005°19'5 9.9
2017-Nov-11 05:30N 36°03' W 005°13'  

Dump ship's entire track history